createdAt,value
2018-05-13T00:00:27.593Z,22.33
2018-05-13T00:02:55.057Z,27.83
2018-05-13T00:05:23.353Z,27.53
2018-05-13T00:07:50.737Z,22.47
2018-05-13T00:10:18.241Z,23.43
2018-05-13T00:12:45.708Z,25.93
2018-05-13T00:15:13.945Z,30.50
2018-05-13T00:17:41.408Z,25.40
2018-05-13T00:20:08.876Z,26.00
2018-05-13T00:22:36.433Z,23.27
2018-05-13T00:25:03.887Z,28.17
2018-05-13T00:27:31.357Z,23.80
2018-05-13T00:29:58.908Z,22.37
2018-05-13T00:32:26.464Z,23.33
2018-05-13T00:34:54.025Z,20.90
2018-05-13T00:37:21.480Z,25.03
2018-05-13T00:39:49.036Z,21.20
2018-05-13T00:42:16.604Z,23.60
2018-05-13T00:44:44.056Z,20.50
2018-05-13T00:47:11.524Z,22.13
2018-05-13T00:49:38.990Z,25.63
2018-05-13T00:52:07.215Z,23.37
2018-05-13T00:54:46.464Z,22.50
2018-05-13T00:57:13.920Z,34.80
2018-05-13T00:59:41.480Z,22.17
2018-05-13T01:02:08.861Z,22.80
2018-05-13T01:04:37.096Z,21.47
2018-05-13T01:07:04.580Z,27.10
2018-05-13T01:09:32.142Z,28.07
2018-05-13T01:11:59.608Z,24.40
2018-05-13T01:14:27.161Z,23.17
2018-05-13T01:16:54.712Z,24.90
2018-05-13T01:19:22.175Z,27.10
2018-05-13T01:21:49.629Z,22.17
2018-05-13T01:24:17.175Z,24.03
2018-05-13T01:26:44.644Z,24.53
2018-05-13T01:29:12.197Z,25.53
2018-05-13T01:31:39.665Z,24.20
2018-05-13T01:34:07.218Z,28.20
2018-05-13T01:36:34.760Z,25.03
2018-05-13T01:39:02.227Z,27.97
2018-05-13T01:41:29.684Z,25.30
2018-05-13T01:43:57.157Z,30.83
2018-05-13T01:46:24.661Z,26.10
2018-05-13T01:48:52.104Z,27.00
2018-05-13T01:51:19.613Z,27.17
2018-05-13T01:53:47.880Z,32.20
2018-05-13T01:56:15.447Z,30.53
2018-05-13T01:58:42.908Z,30.10
2018-05-13T02:01:10.465Z,25.47
2018-05-13T02:03:37.928Z,28.00
2018-05-13T02:06:05.393Z,28.80
2018-05-13T02:08:32.861Z,31.10
2018-05-13T02:11:01.111Z,31.47
2018-05-13T02:13:28.581Z,29.27
2018-05-13T02:15:56.128Z,34.13
2018-05-13T02:18:23.592Z,34.40
2018-05-13T02:20:51.819Z,31.30
2018-05-13T02:23:19.283Z,37.10
2018-05-13T02:25:46.775Z,27.57
2018-05-13T02:28:14.244Z,30.73
2018-05-13T02:30:41.784Z,32.43
2018-05-13T02:33:09.237Z,31.67
2018-05-13T02:35:36.700Z,29.40
2018-05-13T02:38:04.156Z,31.23
2018-05-13T02:40:31.633Z,34.13
2018-05-13T02:42:59.089Z,37.83
2018-05-13T02:45:27.308Z,35.00
2018-05-13T02:47:54.782Z,30.13
2018-05-13T02:50:22.236Z,30.80
2018-05-13T02:52:49.709Z,36.20
2018-05-13T02:55:17.159Z,32.80
2018-05-13T02:57:44.629Z,35.37
2018-05-13T03:00:12.096Z,34.60
2018-05-13T03:02:39.552Z,33.80
2018-05-13T03:05:07.110Z,38.20
2018-05-13T03:07:35.381Z,34.77
2018-05-13T03:10:03.625Z,36.30
2018-05-13T03:12:31.108Z,33.50
2018-05-13T03:14:58.560Z,33.83
2018-05-13T03:17:26.032Z,37.27
2018-05-13T03:19:53.502Z,30.60
2018-05-13T03:22:21.756Z,30.57
2018-05-13T03:24:50.031Z,35.53
2018-05-13T03:27:19.000Z,34.40
2018-05-13T03:29:46.468Z,37.47
2018-05-13T03:36:50.406Z,32.07
2018-05-13T03:39:17.870Z,37.63
2018-05-13T03:41:45.440Z,36.57
2018-05-13T03:44:12.904Z,38.13
2018-05-13T03:46:41.128Z,32.53
2018-05-13T03:49:08.625Z,36.70
2018-05-13T03:51:36.849Z,39.83
2018-05-13T03:54:04.329Z,35.13
2018-05-13T03:56:33.424Z,42.13
2018-05-13T03:59:00.986Z,35.10
2018-05-13T04:01:28.396Z,36.93
2018-05-13T04:03:56.744Z,44.47
2018-05-13T04:06:24.200Z,37.23
2018-05-13T04:09:03.467Z,35.30
2018-05-13T04:11:42.829Z,35.50
2018-05-13T04:14:22.352Z,39.83
2018-05-13T04:16:49.803Z,41.80
2018-05-13T04:19:17.255Z,39.90
2018-05-13T04:21:44.775Z,35.03
2018-05-13T04:24:12.235Z,40.83
2018-05-13T04:26:39.699Z,49.63
2018-05-13T04:29:07.248Z,44.90
2018-05-13T04:31:34.709Z,58.50
2018-05-13T04:34:02.167Z,73.13
2018-05-13T04:36:29.629Z,81.73
2018-05-13T04:38:57.096Z,72.83
2018-05-13T04:41:25.335Z,73.80
2018-05-13T04:43:52.784Z,72.97
2018-05-13T04:46:20.248Z,74.27
2018-05-13T04:48:47.709Z,67.20
2018-05-13T04:51:15.281Z,66.67
2018-05-13T04:53:42.769Z,71.07
2018-05-13T04:56:10.998Z,78.27
2018-05-13T04:58:38.567Z,77.37
2018-05-13T05:01:06.021Z,88.20
2018-05-13T05:03:33.475Z,74.30
2018-05-13T05:06:00.954Z,82.57
2018-05-13T05:08:28.419Z,81.70
2018-05-13T05:10:56.635Z,83.60
2018-05-13T05:13:24.118Z,81.27
2018-05-13T05:15:51.580Z,71.30
2018-05-13T05:18:19.143Z,69.33
2018-05-13T05:20:46.709Z,51.97
2018-05-13T05:23:14.164Z,58.97
2018-05-13T05:25:41.637Z,49.00
2018-05-13T05:28:09.896Z,46.10
2018-05-13T05:30:37.360Z,49.90
2018-05-13T05:33:04.819Z,56.37
2018-05-13T05:35:32.288Z,53.87
2018-05-13T05:38:00.507Z,45.87
2018-05-13T05:40:27.973Z,46.60
2018-05-13T05:42:55.436Z,43.90
2018-05-13T05:45:22.904Z,48.30
2018-05-13T05:47:50.460Z,48.87
2018-05-13T05:50:17.919Z,45.37
2018-05-13T05:52:45.388Z,50.20
2018-05-13T05:55:12.940Z,49.17
2018-05-13T05:57:40.395Z,47.10
2018-05-13T06:00:07.908Z,53.47
2018-05-13T06:02:35.363Z,41.53
2018-05-13T06:05:02.823Z,45.93
2018-05-13T06:07:30.320Z,43.20
2018-05-13T06:09:57.779Z,48.23
2018-05-13T06:12:25.344Z,46.87
2018-05-13T06:14:52.797Z,50.50
2018-05-13T06:17:20.277Z,40.03
2018-05-13T06:19:48.511Z,47.77
2018-05-13T06:22:15.985Z,46.97
2018-05-13T06:24:43.443Z,44.70
2018-05-13T06:27:11.010Z,44.17
2018-05-13T06:29:38.484Z,48.00
2018-05-13T06:32:06.722Z,36.73
2018-05-13T06:34:34.172Z,43.63
2018-05-13T06:37:01.633Z,40.73
2018-05-13T06:39:29.208Z,44.07
2018-05-13T06:41:56.763Z,37.30
2018-05-13T06:44:25.819Z,38.73
2018-05-13T06:46:53.324Z,41.23
2018-05-13T06:49:20.798Z,39.20
2018-05-13T06:51:49.028Z,40.13
2018-05-13T06:54:16.512Z,43.90
2018-05-13T06:56:43.980Z,44.50
2018-05-13T06:59:12.221Z,42.10
2018-05-13T07:01:39.696Z,39.60
2018-05-13T07:04:07.161Z,41.73
2018-05-13T07:06:34.619Z,51.80
2018-05-13T07:09:02.096Z,44.30
2018-05-13T07:11:30.326Z,52.53
2018-05-13T07:13:57.808Z,41.43
2018-05-13T07:16:25.343Z,43.17
2018-05-13T07:18:52.817Z,50.40
2018-05-13T07:21:20.284Z,53.27
2018-05-13T07:23:50.184Z,54.40
2018-05-13T07:26:17.639Z,48.47
2018-05-13T07:28:45.200Z,44.63
2018-05-13T07:31:12.756Z,52.87
2018-05-13T07:33:40.992Z,44.23
2018-05-13T07:36:08.437Z,58.43
2018-05-13T07:38:35.908Z,52.17
2018-05-13T07:41:03.373Z,49.63
2018-05-13T07:43:30.906Z,56.20
2018-05-13T07:45:58.302Z,50.73
2018-05-13T07:48:25.759Z,54.53
2018-05-13T07:50:53.297Z,54.60
2018-05-13T07:53:20.810Z,60.63
2018-05-13T07:55:49.052Z,60.80
2018-05-13T07:58:16.510Z,50.03
2018-05-13T08:00:43.965Z,53.27
2018-05-13T08:03:11.445Z,56.90
2018-05-13T08:05:38.907Z,48.73
2018-05-13T08:08:06.375Z,55.20
2018-05-13T08:10:34.597Z,55.03
2018-05-13T08:13:02.069Z,53.70
2018-05-13T08:15:29.526Z,49.97
2018-05-13T08:17:56.984Z,46.30
2018-05-13T08:20:24.566Z,46.33
2018-05-13T08:22:51.907Z,40.60
2018-05-13T08:25:19.464Z,46.40
2018-05-13T08:27:46.934Z,44.80
2018-05-13T08:30:14.402Z,40.00
2018-05-13T08:32:42.620Z,35.43
2018-05-13T08:35:10.114Z,42.20
2018-05-13T08:37:37.579Z,43.23
2018-05-13T08:40:05.025Z,36.83
2018-05-13T08:42:32.493Z,41.40
2018-05-13T08:45:00.042Z,33.87
2018-05-13T08:47:27.620Z,41.57
2018-05-13T08:49:55.861Z,37.90
2018-05-13T08:52:23.333Z,35.83
2018-05-13T08:54:50.812Z,42.23
2018-05-13T08:57:19.030Z,32.20
2018-05-13T08:59:47.256Z,36.03
2018-05-13T09:02:14.720Z,36.17
2018-05-13T09:04:42.960Z,34.23
2018-05-13T09:07:10.425Z,31.50
2018-05-13T09:09:37.892Z,31.40
2018-05-13T09:12:05.355Z,33.87
2018-05-13T09:14:32.804Z,34.33
2018-05-13T09:17:00.281Z,49.13
2018-05-13T09:19:28.537Z,34.33
2018-05-13T09:21:56.018Z,40.30
2018-05-13T09:24:24.261Z,44.73
2018-05-13T09:29:26.548Z,51.13
2018-05-13T09:31:54.106Z,42.90
2018-05-13T09:34:22.333Z,44.07
2018-05-13T09:36:49.795Z,44.27
2018-05-13T09:39:18.113Z,50.10
2018-05-13T09:41:45.670Z,39.57
2018-05-13T09:44:13.137Z,44.47
2018-05-13T09:46:40.600Z,41.43
2018-05-13T09:49:08.072Z,41.50
2018-05-13T09:51:36.304Z,41.17
2018-05-13T09:54:03.774Z,39.43
2018-05-13T09:56:32.008Z,42.07
2018-05-13T09:59:00.541Z,43.03
2018-05-13T10:01:28.091Z,49.93
2018-05-13T10:03:57.097Z,45.57
2018-05-13T10:06:25.838Z,42.80
2018-05-13T10:08:53.330Z,48.97
2018-05-13T10:11:20.851Z,52.00
2018-05-13T10:13:48.329Z,45.40
2018-05-13T10:16:15.792Z,40.23
2018-05-13T10:18:43.260Z,42.17
2018-05-13T10:21:10.734Z,51.10
2018-05-13T10:23:39.009Z,43.93
2018-05-13T10:26:07.229Z,46.40
2018-05-13T10:28:34.684Z,40.83
2018-05-13T10:31:02.160Z,39.50
2018-05-13T10:33:29.628Z,44.53
2018-05-13T10:35:57.097Z,48.20
2018-05-13T10:38:24.549Z,55.60
2018-05-13T10:40:52.025Z,43.13
2018-05-13T10:43:20.273Z,42.00
2018-05-13T10:45:47.736Z,44.17
2018-05-13T10:48:16.014Z,39.23
2018-05-13T10:50:43.468Z,38.73
2018-05-13T10:53:10.949Z,37.10
2018-05-13T10:55:39.179Z,40.57
2018-05-13T10:58:06.670Z,36.47
2018-05-13T11:00:34.133Z,36.33
2018-05-13T11:03:01.607Z,37.63
2018-05-13T11:05:29.830Z,35.90
2018-05-13T11:07:57.286Z,34.77
2018-05-13T11:10:24.761Z,33.20
2018-05-13T11:12:52.228Z,36.03
2018-05-13T11:15:19.689Z,35.50
2018-05-13T11:17:47.912Z,33.47
2018-05-13T11:20:15.395Z,37.97
2018-05-13T11:22:42.901Z,33.60
2018-05-13T11:25:11.128Z,27.27
2018-05-13T11:27:38.603Z,33.13
2018-05-13T11:30:06.061Z,33.30
2018-05-13T11:32:33.528Z,31.50
2018-05-13T11:35:01.767Z,30.23
2018-05-13T11:37:29.252Z,31.53
2018-05-13T11:39:57.547Z,34.50
2018-05-13T11:42:25.792Z,32.17
2018-05-13T11:44:53.349Z,34.83
2018-05-13T11:47:20.829Z,33.70
2018-05-13T11:49:49.075Z,25.27
2018-05-13T11:52:16.558Z,31.40
2018-05-13T11:54:44.002Z,28.43
2018-05-13T11:57:11.469Z,28.93
2018-05-13T11:59:38.932Z,25.07
2018-05-13T12:02:07.186Z,27.13
2018-05-13T12:04:34.681Z,27.87
2018-05-13T12:07:02.902Z,26.83
2018-05-13T12:09:30.362Z,28.33
2018-05-13T12:11:57.845Z,27.60
2018-05-13T12:14:26.074Z,22.63
2018-05-13T12:16:53.545Z,25.23
2018-05-13T12:19:21.033Z,28.50
2018-05-13T12:21:48.576Z,19.77
2018-05-13T12:24:16.043Z,21.63
2018-05-13T12:26:43.516Z,27.17
2018-05-13T12:29:11.746Z,26.70
2018-05-13T12:31:39.330Z,28.80
2018-05-13T12:34:06.889Z,27.10
2018-05-13T12:36:34.444Z,27.67
2018-05-13T12:39:01.909Z,27.80
2018-05-13T12:41:29.373Z,35.77
2018-05-13T12:43:56.833Z,23.60
2018-05-13T12:46:25.074Z,26.23
2018-05-13T12:48:52.550Z,24.87
2018-05-13T12:51:20.016Z,27.93
2018-05-13T12:53:47.516Z,22.83
2018-05-13T12:56:15.027Z,27.70
2018-05-13T12:58:42.437Z,24.33
2018-05-13T13:01:09.926Z,31.33
2018-05-13T13:03:37.384Z,26.43
2018-05-13T13:06:04.876Z,29.50
2018-05-13T13:08:33.125Z,27.63
2018-05-13T13:11:00.605Z,29.13
2018-05-13T13:13:28.841Z,28.30
2018-05-13T13:15:56.317Z,28.97
2018-05-13T13:18:24.623Z,22.83
2018-05-13T13:20:52.105Z,27.47
2018-05-13T13:23:19.560Z,28.33
2018-05-13T13:25:47.051Z,27.10
2018-05-13T13:28:14.502Z,28.87
2018-05-13T13:30:42.048Z,23.77
2018-05-13T13:33:09.504Z,31.13
2018-05-13T13:35:36.968Z,28.53
2018-05-13T13:38:04.445Z,28.87
2018-05-13T13:40:32.022Z,24.83
2018-05-13T13:43:00.282Z,22.10
2018-05-13T13:45:27.740Z,31.73
2018-05-13T13:47:55.193Z,27.10
2018-05-13T13:50:22.672Z,24.93
2018-05-13T13:52:50.900Z,27.43
2018-05-13T13:55:18.438Z,42.40
2018-05-13T13:57:45.848Z,29.13
2018-05-13T14:00:13.316Z,28.40
2018-05-13T14:02:41.545Z,27.90
2018-05-13T14:05:09.032Z,34.40
2018-05-13T14:07:36.495Z,37.80
2018-05-13T14:10:04.048Z,29.70
2018-05-13T14:12:31.504Z,30.13
2018-05-13T14:14:58.984Z,30.63
2018-05-13T14:17:27.225Z,33.13
2018-05-13T14:19:54.715Z,32.63
2018-05-13T14:22:22.168Z,36.97
2018-05-13T14:24:50.408Z,38.00
2018-05-13T14:27:18.146Z,40.10
2018-05-13T14:29:45.602Z,37.00
2018-05-13T14:32:13.084Z,35.00
2018-05-13T14:34:40.614Z,38.77
2018-05-13T14:37:08.077Z,42.10
2018-05-13T14:39:35.557Z,34.80
2018-05-13T14:42:03.028Z,36.77
2018-05-13T14:44:30.504Z,37.03
2018-05-13T14:46:58.729Z,45.27
2018-05-13T14:49:26.241Z,43.27
2018-05-13T14:51:54.489Z,50.53
2018-05-13T14:54:21.953Z,39.93
2018-05-13T14:56:50.196Z,50.57
2018-05-13T14:59:17.652Z,49.23
2018-05-13T15:01:45.132Z,46.93
2018-05-13T15:04:12.686Z,46.80
2018-05-13T15:06:40.244Z,49.03
2018-05-13T15:09:07.748Z,49.27
2018-05-13T15:11:35.273Z,47.30
2018-05-13T15:14:02.736Z,48.73
2018-05-13T15:16:30.209Z,52.80
2018-05-13T15:18:57.664Z,51.50
2018-05-13T15:21:25.897Z,46.60
2018-05-13T15:23:53.352Z,47.63
2018-05-13T15:26:20.829Z,44.53
2018-05-13T15:28:48.300Z,43.53
2018-05-13T15:31:16.517Z,55.63
2018-05-13T15:33:43.997Z,56.23
2018-05-13T15:36:11.466Z,58.33
2018-05-13T15:38:38.944Z,55.60
2018-05-13T15:41:07.168Z,53.70
2018-05-13T15:43:34.644Z,50.60
2018-05-13T15:46:02.104Z,53.57
2018-05-13T15:48:29.584Z,49.03
2018-05-13T15:50:57.070Z,57.30
2018-05-13T15:53:24.538Z,52.40
2018-05-13T15:55:52.023Z,49.30
2018-05-13T15:58:19.485Z,56.43
2018-05-13T16:00:46.956Z,55.13
2018-05-13T16:03:16.052Z,51.70
2018-05-13T16:05:43.520Z,49.87
2018-05-13T16:08:11.807Z,49.43
2018-05-13T16:10:40.045Z,43.83
2018-05-13T16:13:07.510Z,39.43
2018-05-13T16:15:35.000Z,56.53
2018-05-13T16:18:03.230Z,44.67
2018-05-13T16:20:31.460Z,46.23
2018-05-13T16:22:59.720Z,44.40
2018-05-13T16:25:27.184Z,43.37
2018-05-13T16:27:55.424Z,40.80
2018-05-13T16:30:22.922Z,43.57
2018-05-13T16:32:50.385Z,48.67
2018-05-13T16:35:18.626Z,47.90
2018-05-13T16:37:46.082Z,43.00
2018-05-13T16:40:13.544Z,45.87
2018-05-13T16:42:41.045Z,44.13
2018-05-13T16:45:08.549Z,47.60
2018-05-13T16:47:36.032Z,45.93
2018-05-13T16:50:04.248Z,50.33
2018-05-13T16:52:31.720Z,54.40
2018-05-13T16:54:59.177Z,51.67
2018-05-13T16:57:26.637Z,52.63
2018-05-13T16:59:54.117Z,49.13
2018-05-13T17:02:23.126Z,51.43
2018-05-13T17:04:50.669Z,48.87
2018-05-13T17:07:18.220Z,48.30
2018-05-13T17:09:45.685Z,56.40
2018-05-13T17:12:13.140Z,50.47
2018-05-13T17:14:40.690Z,57.03
2018-05-13T17:17:08.177Z,52.47
2018-05-13T17:19:35.628Z,53.73
2018-05-13T17:22:03.872Z,50.23
2018-05-13T17:24:31.395Z,51.33
2018-05-13T17:26:58.853Z,59.63
2018-05-13T17:29:26.313Z,52.00
2018-05-13T17:31:53.772Z,55.53
2018-05-13T17:34:21.236Z,60.43
2018-05-13T17:36:48.729Z,53.03
2018-05-13T17:39:17.065Z,58.67
2018-05-13T17:41:44.495Z,54.27
2018-05-13T17:44:12.704Z,55.83
2018-05-13T17:46:40.194Z,54.47
2018-05-13T17:49:07.643Z,67.70
2018-05-13T17:51:35.107Z,55.63
2018-05-13T17:54:02.573Z,55.90
2018-05-13T17:56:31.753Z,58.17
2018-05-13T17:58:59.232Z,61.30
2018-05-13T18:01:27.489Z,63.83
2018-05-13T18:03:54.942Z,55.13
2018-05-13T18:06:22.429Z,51.10
2018-05-13T18:08:50.655Z,58.47
2018-05-13T18:11:18.118Z,56.27
2018-05-13T18:13:45.621Z,62.00
2018-05-13T18:16:13.840Z,60.13
2018-05-13T18:18:41.297Z,64.17
2018-05-13T18:21:08.769Z,66.70
2018-05-13T18:23:36.225Z,54.70
2018-05-13T18:26:03.681Z,52.80
2018-05-13T18:28:31.151Z,57.60
2018-05-13T18:30:58.662Z,56.77
2018-05-13T18:33:26.085Z,63.80
2018-05-13T18:35:54.307Z,55.53
2018-05-13T18:38:21.780Z,61.70
2018-05-13T18:40:50.072Z,57.50
2018-05-13T18:43:17.525Z,65.53
2018-05-13T18:45:44.994Z,54.43
2018-05-13T18:48:13.245Z,56.23
2018-05-13T18:50:40.812Z,58.50
2018-05-13T18:53:08.305Z,67.87
2018-05-13T18:55:36.549Z,55.73
2018-05-13T18:58:04.004Z,46.63
2018-05-13T19:00:31.461Z,58.20
2018-05-13T19:02:59.016Z,55.43
2018-05-13T19:05:26.480Z,57.10
2018-05-13T19:07:53.934Z,56.40
2018-05-13T19:10:21.412Z,49.80
2018-05-13T19:12:49.640Z,59.83
2018-05-13T19:15:17.103Z,51.90
2018-05-13T19:17:44.580Z,66.50
2018-05-13T19:20:12.031Z,54.53
2018-05-13T19:22:39.504Z,52.73
2018-05-13T19:25:07.019Z,54.40
2018-05-13T19:27:34.408Z,63.80
2018-05-13T19:30:01.945Z,63.33
2018-05-13T19:32:30.148Z,57.70
2018-05-13T19:34:57.620Z,71.03
2018-05-13T19:37:25.849Z,68.33
2018-05-13T19:39:53.307Z,70.57
2018-05-13T19:42:20.771Z,68.83
2018-05-13T19:44:48.240Z,57.80
2018-05-13T19:47:15.712Z,58.47
2018-05-13T19:49:43.948Z,67.80
2018-05-13T19:52:11.433Z,66.60
2018-05-13T19:54:38.896Z,74.40
2018-05-13T19:57:06.352Z,71.70
2018-05-13T19:59:33.828Z,78.70
2018-05-13T20:02:02.052Z,55.83
2018-05-13T20:04:29.539Z,63.53
2018-05-13T20:06:57.009Z,62.80
2018-05-13T20:09:25.277Z,71.33
2018-05-13T20:11:52.701Z,59.33
2018-05-13T20:14:20.177Z,79.43
2018-05-13T20:16:47.692Z,68.27
2018-05-13T20:19:15.156Z,65.57
2018-05-13T20:21:42.612Z,62.13
2018-05-13T20:24:10.088Z,64.67
2018-05-13T20:26:37.556Z,49.63
2018-05-13T20:29:05.030Z,58.30
2018-05-13T20:31:32.533Z,67.00
2018-05-13T20:33:59.995Z,57.30
2018-05-13T20:36:27.469Z,48.80
2018-05-13T20:38:54.949Z,64.23
2018-05-13T20:41:22.410Z,54.93
2018-05-13T20:43:49.860Z,55.70
2018-05-13T20:46:17.413Z,47.63
2018-05-13T20:48:44.872Z,60.20
2018-05-13T20:51:12.408Z,52.10
2018-05-13T20:53:39.795Z,50.87
2018-05-13T20:56:07.269Z,53.80
2018-05-13T20:58:35.508Z,51.20
2018-05-13T21:01:02.977Z,63.00
2018-05-13T21:03:30.541Z,57.80
2018-05-13T21:05:58.000Z,50.27
2018-05-13T21:08:25.470Z,59.20
2018-05-13T21:10:53.688Z,60.40
2018-05-13T21:13:21.164Z,62.63
2018-05-13T21:15:48.636Z,58.80
2018-05-13T21:18:16.100Z,60.33
2018-05-13T21:20:43.568Z,63.03
2018-05-13T21:23:11.024Z,61.97
2018-05-13T21:25:38.484Z,58.77
2018-05-13T21:28:06.709Z,52.70
2018-05-13T21:30:34.177Z,54.57
2018-05-13T21:33:01.637Z,63.53
2018-05-13T21:35:29.100Z,65.30
2018-05-13T21:37:56.669Z,48.33
2018-05-13T21:40:25.642Z,56.87
2018-05-13T21:42:53.103Z,62.60
2018-05-13T21:45:20.560Z,60.40
2018-05-13T21:47:48.037Z,63.70
2018-05-13T21:50:15.497Z,58.50
2018-05-13T21:52:42.984Z,66.03
2018-05-13T21:55:10.455Z,62.10
2018-05-13T21:57:37.920Z,54.07
2018-05-13T22:00:05.381Z,66.20
2018-05-13T22:02:32.874Z,66.30
2018-05-13T22:05:00.340Z,60.60
2018-05-13T22:07:27.816Z,61.70
2018-05-13T22:09:56.050Z,60.67
2018-05-13T22:12:23.512Z,53.73
2018-05-13T22:14:50.979Z,56.83
2018-05-13T22:17:18.449Z,53.40
2018-05-13T22:19:45.904Z,53.40
2018-05-13T22:22:13.360Z,57.37
2018-05-13T22:24:41.585Z,65.97
2018-05-13T22:27:09.048Z,70.73
2018-05-13T22:29:36.518Z,60.50
2018-05-13T22:32:03.976Z,68.13
2018-05-13T22:34:31.433Z,71.67
2018-05-13T22:36:58.884Z,72.60
2018-05-13T22:39:26.356Z,59.97
2018-05-13T22:41:53.816Z,70.13
2018-05-13T22:44:21.280Z,70.00
2018-05-13T22:46:48.744Z,67.40
2018-05-13T22:49:16.197Z,66.60
2018-05-13T22:51:43.665Z,59.40
2018-05-13T22:54:11.882Z,78.33
2018-05-13T22:56:39.369Z,63.40
2018-05-13T22:59:06.832Z,66.27
2018-05-13T23:01:34.292Z,61.37
2018-05-13T23:04:01.756Z,53.20
2018-05-13T23:06:30.912Z,70.87
2018-05-13T23:08:58.404Z,72.00
2018-05-13T23:11:25.860Z,62.13
2018-05-13T23:13:53.323Z,62.00
2018-05-13T23:16:20.776Z,58.93
2018-05-13T23:18:48.237Z,57.30
2018-05-13T23:21:15.693Z,56.17
2018-05-13T23:23:43.185Z,60.30
2018-05-13T23:26:10.642Z,60.50
2018-05-13T23:28:38.116Z,65.20
2018-05-13T23:31:05.575Z,67.43
2018-05-13T23:33:33.043Z,66.07
2018-05-13T23:36:00.506Z,67.60
2018-05-13T23:38:27.956Z,69.17
2018-05-13T23:40:55.409Z,75.23
2018-05-13T23:43:22.987Z,81.80
2018-05-13T23:45:50.453Z,75.43
2018-05-13T23:48:17.917Z,93.10
2018-05-13T23:50:45.385Z,83.87
2018-05-13T23:53:13.625Z,79.07
2018-05-13T23:55:41.089Z,84.87
2018-05-13T23:58:08.561Z,82.37
